Time;durP1;ratioP1;P1;durP2;ratioP2;P2;SDS_P1;SDS_P2;PMS_P1;PMS_P2;Temp;Humidity;BMP_temperature;BMP_pressure;BME280_temperature;BME280_humidity;BME280_pressure;Samples;Min_cycle;Max_cycle;Signal;HPM_P1;HPM_P2
2022/12/27 00:00:21;;;;;;;;;;;3.10;99.90;;;;;;5104454;28;20357;-80
2022/12/27 00:02:46;;;;;;;;;;;3.00;99.90;;;;;;5107105;28;20002;-80
2022/12/27 00:05:13;;;;;;;;;;;3.00;99.90;;;;;;5104497;28;19909;-78
2022/12/27 00:07:38;;;;;;;;;;;3.00;99.90;;;;;;5093037;28;19924;-78
2022/12/27 00:10:05;;;;;;;;;;;3.00;99.90;;;;;;5112439;28;19957;-77
2022/12/27 00:12:31;;;;;;;;;;;3.00;99.90;;;;;;5096760;28;19930;-78
2022/12/27 00:14:56;;;;;;;;;;;3.00;99.90;;;;;;5093001;28;20000;-78
2022/12/27 00:17:22;;;;;;;;;;;3.00;99.90;;;;;;5092412;28;20349;-79
2022/12/27 00:19:47;;;;;;;;;;;3.00;99.90;;;;;;5092810;28;19908;-79
2022/12/27 00:22:13;;;;;;;;;;;3.00;99.90;;;;;;5092894;28;19998;-79
2022/12/27 00:24:39;;;;;;;;;;;3.10;99.90;;;;;;5073689;28;19971;-78
2022/12/27 00:27:05;;;;;;;;;;;3.10;99.90;;;;;;5073709;28;20371;-78
2022/12/27 00:29:30;;;;;;;;;;;3.00;99.90;;;;;;5093152;28;19987;-77
2022/12/27 00:31:56;;;;;;;;;;;3.10;99.90;;;;;;5115383;28;19947;-77
2022/12/27 00:34:21;;;;;;;;;;;3.10;99.90;;;;;;5096760;28;19900;-81
2022/12/27 00:36:47;;;;;;;;;;;3.20;99.90;;;;;;5115125;28;19917;-77
2022/12/27 00:39:13;;;;;;;;;;;3.20;99.90;;;;;;5114743;28;19923;-77
2022/12/27 00:41:38;;;;;;;;;;;3.20;99.90;;;;;;5100562;28;20394;-78
2022/12/27 00:44:04;;;;;;;;;;;3.20;99.90;;;;;;5091648;28;19912;-78
2022/12/27 00:46:30;;;;;;;;;;;3.20;99.90;;;;;;5090903;28;19954;-79
2022/12/27 00:48:57;;;;;;;;;;;3.20;99.90;;;;;;5091892;28;19958;-79
2022/12/27 00:51:23;;;;;;;;;;;3.20;99.90;;;;;;5091635;28;20349;-79
2022/12/27 00:53:49;;;;;;;;;;;3.10;99.90;;;;;;5091479;28;19930;-79
2022/12/27 00:56:33;;;;;;;;;;;3.20;99.90;;;;;;5091576;28;20065;-79
2022/12/27 00:59:01;;;;;;;;;;;3.20;99.90;;;;;;5091827;28;20043;-78
2022/12/27 01:01:28;;;;;;;;;;;3.20;99.90;;;;;;5090976;28;19938;-79
2022/12/27 01:03:54;;;;;;;;;;;3.20;99.90;;;;;;5091353;28;20332;-78
2022/12/27 01:06:21;;;;;;;;;;;3.30;99.90;;;;;;5104053;28;19943;-83
2022/12/27 01:08:47;;;;;;;;;;;3.30;99.90;;;;;;5101381;28;20016;-79
2022/12/27 01:11:14;;;;;;;;;;;3.40;99.90;;;;;;5094314;28;19978;-79
2022/12/27 01:13:40;;;;;;;;;;;3.40;99.90;;;;;;5090161;28;19920;-78
2022/12/27 01:16:10;;;;;;;;;;;3.40;99.90;;;;;;5091326;28;19988;-79
2022/12/27 01:18:35;;;;;;;;;;;3.40;99.90;;;;;;5091036;28;19996;-79
2022/12/27 01:21:08;;;;;;;;;;;3.40;99.90;;;;;;5091065;28;20264;-78
2022/12/27 01:23:34;;;;;;;;;;;3.40;99.90;;;;;;5091133;28;19909;-78
2022/12/27 01:26:00;;;;;;;;;;;3.40;99.90;;;;;;5090919;28;19908;-79
2022/12/27 01:28:26;;;;;;;;;;;3.50;99.90;;;;;;5090538;28;19916;-79
2022/12/27 01:30:52;;;;;;;;;;;3.50;99.90;;;;;;5091135;28;19908;-80
2022/12/27 01:33:18;;;;;;;;;;;3.60;99.90;;;;;;5091569;28;19912;-79
2022/12/27 01:35:43;;;;;;;;;;;3.60;99.90;;;;;;5090800;28;19912;-80
2022/12/27 01:38:09;;;;;;;;;;;3.60;99.90;;;;;;5091321;28;19927;-79
2022/12/27 01:40:35;;;;;;;;;;;3.60;99.90;;;;;;5091345;28;19959;-78
2022/12/27 01:43:01;;;;;;;;;;;3.60;99.90;;;;;;5073042;28;20048;-78
2022/12/27 01:45:30;;;;;;;;;;;3.60;99.90;;;;;;5090942;28;20007;-79
2022/12/27 01:48:01;;;;;;;;;;;3.70;99.90;;;;;;5090639;28;20027;-80
2022/12/27 01:50:26;;;;;;;;;;;3.70;99.90;;;;;;5090919;28;19908;-79
2022/12/27 01:52:58;;;;;;;;;;;3.70;99.90;;;;;;5072941;28;19915;-79
2022/12/27 01:55:27;;;;;;;;;;;3.70;99.90;;;;;;5090628;28;19919;-82
2022/12/27 01:57:54;;;;;;;;;;;3.70;99.90;;;;;;5091080;28;20045;-78
2022/12/27 02:00:20;;;;;;;;;;;3.70;99.90;;;;;;5091244;28;20002;-79
2022/12/27 02:02:46;;;;;;;;;;;3.70;99.90;;;;;;5090270;28;19908;-79
2022/12/27 02:05:13;;;;;;;;;;;3.70;99.90;;;;;;5091179;28;19988;-79
2022/12/27 02:07:56;;;;;;;;;;;3.70;99.90;;;;;;5088736;28;19935;-78
2022/12/27 02:10:22;;;;;;;;;;;3.70;99.90;;;;;;5094509;28;20440;-77
2022/12/27 02:12:48;;;;;;;;;;;3.70;99.90;;;;;;5094578;28;19967;-79
2022/12/27 02:15:13;;;;;;;;;;;3.60;99.90;;;;;;5094570;28;19908;-78
2022/12/27 02:17:39;;;;;;;;;;;3.60;99.90;;;;;;5093928;28;19909;-79
2022/12/27 02:20:16;;;;;;;;;;;3.60;99.90;;;;;;5108186;28;19956;-79
2022/12/27 02:25:37;;;;;;;;;;;3.70;99.90;;;;;;5096361;28;19922;-83
2022/12/27 02:28:18;;;;;;;;;;;3.70;99.90;;;;;;5076482;28;19931;-79
2022/12/27 02:30:45;;;;;;;;;;;3.60;99.90;;;;;;5094479;28;20162;-79
2022/12/27 02:33:13;;;;;;;;;;;3.60;99.90;;;;;;5104123;28;19936;-80
2022/12/27 02:35:40;;;;;;;;;;;3.70;99.90;;;;;;5075850;28;19934;-79
2022/12/27 02:38:12;;;;;;;;;;;3.70;99.90;;;;;;5094352;28;20007;-80
2022/12/27 02:55:11;;;;;;;;;;;3.70;99.90;;;;;;5093459;28;19911;-80
2022/12/27 02:57:41;;;;;;;;;;;3.80;99.90;;;;;;5093854;28;20020;-78
2022/12/27 03:03:22;;;;;;;;;;;3.80;99.90;;;;;;5094103;28;19930;-80
2022/12/27 03:08:53;;;;;;;;;;;3.90;99.90;;;;;;5093322;28;19965;-79
2022/12/27 03:17:19;;;;;;;;;;;3.90;99.90;;;;;;5091550;28;20388;-80
2022/12/27 03:25:30;;;;;;;;;;;4.00;99.90;;;;;;5093877;28;19919;-80
2022/12/27 03:33:49;;;;;;;;;;;4.10;99.90;;;;;;5093327;28;19922;-80
2022/12/27 03:39:16;;;;;;;;;;;4.10;99.90;;;;;;5093572;28;19919;-80
2022/12/27 03:44:30;;;;;;;;;;;4.30;99.90;;;;;;5093384;28;19927;-82
2022/12/27 03:46:56;;;;;;;;;;;4.30;99.90;;;;;;5110384;28;19916;-80
2022/12/27 03:49:40;;;;;;;;;;;4.40;99.90;;;;;;5102989;28;20379;-80
2022/12/27 03:52:05;;;;;;;;;;;4.40;99.90;;;;;;5096976;28;20486;-79
2022/12/27 03:54:33;;;;;;;;;;;4.50;99.90;;;;;;5105245;28;19912;-81
2022/12/27 03:57:04;;;;;;;;;;;4.50;99.90;;;;;;5099426;28;19915;-78
2022/12/27 03:59:30;;;;;;;;;;;4.60;99.90;;;;;;5099881;28;19942;-81
2022/12/27 04:01:55;;;;;;;;;;;4.60;99.90;;;;;;5113896;28;20232;-79
2022/12/27 04:04:21;;;;;;;;;;;4.60;99.90;;;;;;5100007;28;20325;-81
2022/12/27 04:06:46;;;;;;;;;;;4.60;99.90;;;;;;5105731;28;19927;-79
2022/12/27 04:36:34;;;;;;;;;;;5.10;99.90;;;;;;5107795;28;20252;-83
2022/12/27 04:39:01;;;;;;;;;;;5.20;99.90;;;;;;5097474;28;19908;-80
2022/12/27 04:55:16;;;;;;;;;;;5.40;99.90;;;;;;5093051;28;19915;-84
2022/12/27 04:57:42;;;;;;;;;;;5.40;99.90;;;;;;5092787;28;19959;-85
2022/12/27 05:02:52;;;;;;;;;;;5.40;99.90;;;;;;5092690;28;19920;-85
2022/12/27 05:05:17;;;;;;;;;;;5.50;99.90;;;;;;5093499;28;19924;-85
2022/12/27 05:15:56;;;;;;;;;;;5.60;99.90;;;;;;5092814;28;19923;-85
2022/12/27 05:18:21;;;;;;;;;;;5.60;99.90;;;;;;5093373;28;19908;-83
2022/12/27 05:20:47;;;;;;;;;;;5.60;99.90;;;;;;5092507;28;20317;-85
2022/12/27 05:25:56;;;;;;;;;;;5.60;99.90;;;;;;5091747;28;19995;-84
2022/12/27 05:28:22;;;;;;;;;;;5.60;99.90;;;;;;5099872;28;19944;-84
2022/12/27 05:30:47;;;;;;;;;;;5.70;99.90;;;;;;5107933;28;19930;-84
2022/12/27 05:33:13;;;;;;;;;;;5.70;99.90;;;;;;5106462;28;19907;-84
2022/12/27 05:35:39;;;;;;;;;;;5.80;99.90;;;;;;5091680;28;19919;-85
2022/12/27 05:38:04;;;;;;;;;;;5.80;99.90;;;;;;5091136;28;20440;-85
2022/12/27 05:40:30;;;;;;;;;;;5.80;99.90;;;;;;5093468;28;19915;-83
2022/12/27 05:42:59;;;;;;;;;;;5.90;99.90;;;;;;5095012;28;19916;-83
2022/12/27 05:45:25;;;;;;;;;;;5.90;99.90;;;;;;5095566;28;19912;-82
2022/12/27 05:47:51;;;;;;;;;;;6.00;99.90;;;;;;5076469;28;19959;-82
2022/12/27 05:50:17;;;;;;;;;;;6.00;99.90;;;;;;5095309;28;19973;-82
2022/12/27 05:52:43;;;;;;;;;;;6.20;99.90;;;;;;5094782;28;19920;-82
2022/12/27 05:55:08;;;;;;;;;;;6.20;99.90;;;;;;5095767;28;19908;-82
2022/12/27 05:57:34;;;;;;;;;;;6.30;99.90;;;;;;5095515;28;20237;-81
2022/12/27 06:00:00;;;;;;;;;;;6.30;99.90;;;;;;5094302;28;19912;-81
2022/12/27 06:02:26;;;;;;;;;;;6.30;99.90;;;;;;5076513;28;19908;-81
2022/12/27 06:04:51;;;;;;;;;;;6.40;99.90;;;;;;5094693;28;20102;-82
2022/12/27 06:07:17;;;;;;;;;;;6.40;99.90;;;;;;5094781;28;19924;-82
2022/12/27 06:09:42;;;;;;;;;;;6.50;99.90;;;;;;5075943;28;19915;-83
2022/12/27 06:12:08;;;;;;;;;;;6.60;99.90;;;;;;5076567;28;19915;-82
2022/12/27 06:14:34;;;;;;;;;;;6.70;99.90;;;;;;5095028;28;20433;-82
2022/12/27 06:16:59;;;;;;;;;;;6.80;99.90;;;;;;5104591;28;19908;-82
2022/12/27 06:19:25;;;;;;;;;;;6.90;99.90;;;;;;5106625;28;20321;-81
2022/12/27 06:21:50;;;;;;;;;;;7.00;99.90;;;;;;5075679;28;19909;-82
2022/12/27 06:24:16;;;;;;;;;;;7.10;99.90;;;;;;5094526;28;19914;-82
2022/12/27 06:26:41;;;;;;;;;;;7.10;99.90;;;;;;5094398;28;19916;-85
2022/12/27 06:29:08;;;;;;;;;;;7.10;99.90;;;;;;5094488;28;20365;-83
2022/12/27 06:31:34;;;;;;;;;;;7.30;99.90;;;;;;5094505;28;19908;-83
2022/12/27 06:33:59;;;;;;;;;;;7.30;99.90;;;;;;5094135;28;19908;-82
2022/12/27 06:36:26;;;;;;;;;;;7.40;99.90;;;;;;5102663;28;19918;-82
2022/12/27 06:38:52;;;;;;;;;;;7.50;99.90;;;;;;5114492;28;19912;-83
2022/12/27 06:41:18;;;;;;;;;;;7.50;99.90;;;;;;5114896;28;19936;-83
2022/12/27 06:43:44;;;;;;;;;;;7.60;99.90;;;;;;5114339;28;19998;-85
2022/12/27 06:46:10;;;;;;;;;;;7.60;99.90;;;;;;5116100;28;19915;-82
2022/12/27 06:48:36;;;;;;;;;;;7.60;99.90;;;;;;5096387;28;19916;-81
2022/12/27 06:51:08;;;;;;;;;;;7.60;99.90;;;;;;5112859;28;19907;-82
2022/12/27 06:53:35;;;;;;;;;;;7.70;99.90;;;;;;5114273;28;19914;-82
2022/12/27 06:56:04;;;;;;;;;;;7.70;99.90;;;;;;5113336;28;20245;-82
2022/12/27 06:58:29;;;;;;;;;;;7.80;99.90;;;;;;5114247;28;19931;-82
2022/12/27 07:00:55;;;;;;;;;;;7.90;99.90;;;;;;5113813;28;20349;-82
2022/12/27 07:03:21;;;;;;;;;;;7.90;99.90;;;;;;5114296;28;20286;-81
2022/12/27 07:05:46;;;;;;;;;;;7.90;99.90;;;;;;5115909;28;19908;-83
2022/12/27 07:08:12;;;;;;;;;;;7.90;99.90;;;;;;5114101;28;19928;-81
2022/12/27 07:10:37;;;;;;;;;;;7.90;99.90;;;;;;5114157;28;19912;-82
2022/12/27 07:13:03;;;;;;;;;;;7.90;99.90;;;;;;5099281;28;19912;-82
2022/12/27 07:15:28;;;;;;;;;;;7.90;99.90;;;;;;5093337;28;19912;-81
2022/12/27 07:17:54;;;;;;;;;;;7.90;99.90;;;;;;5093142;28;20007;-82
2022/12/27 07:20:20;;;;;;;;;;;7.90;99.90;;;;;;5093368;28;19938;-81
2022/12/27 07:22:45;;;;;;;;;;;7.90;99.90;;;;;;5092529;28;19918;-84
2022/12/27 07:25:11;;;;;;;;;;;7.90;99.90;;;;;;5080163;28;19924;-80
2022/12/27 07:27:36;;;;;;;;;;;8.00;99.90;;;;;;5113865;28;20352;-80
2022/12/27 07:30:03;;;;;;;;;;;8.10;99.90;;;;;;5113546;28;19962;-81
2022/12/27 07:32:28;;;;;;;;;;;8.10;99.90;;;;;;5113949;28;19908;-81
2022/12/27 07:34:54;;;;;;;;;;;8.00;99.90;;;;;;5113299;28;19981;-81
2022/12/27 07:37:20;;;;;;;;;;;8.10;99.90;;;;;;5113832;28;19945;-79
2022/12/27 07:39:45;;;;;;;;;;;8.00;99.90;;;;;;5113136;28;20028;-81
2022/12/27 07:42:11;;;;;;;;;;;8.10;99.90;;;;;;5113169;28;19915;-80
2022/12/27 07:44:37;;;;;;;;;;;8.10;99.90;;;;;;5113484;28;19914;-81
2022/12/27 07:47:02;;;;;;;;;;;8.10;99.90;;;;;;5094649;28;19916;-80
2022/12/27 07:49:28;;;;;;;;;;;8.30;99.90;;;;;;5112816;28;19912;-79
2022/12/27 07:51:54;;;;;;;;;;;8.30;99.90;;;;;;5112842;28;19912;-80
2022/12/27 07:54:19;;;;;;;;;;;8.30;99.90;;;;;;5095404;28;20003;-81
2022/12/27 07:56:45;;;;;;;;;;;8.30;99.90;;;;;;5113716;28;20327;-82
2022/12/27 07:59:11;;;;;;;;;;;8.20;99.90;;;;;;5113528;28;19908;-81
2022/12/27 08:02:02;;;;;;;;;;;8.30;99.90;;;;;;5114408;28;19918;-81
2022/12/27 08:04:26;;;;;;;;;;;8.40;99.90;;;;;;5113347;28;19919;-80
2022/12/27 08:06:51;;;;;;;;;;;8.40;99.90;;;;;;5077504;28;19920;-81
2022/12/27 08:09:19;;;;;;;;;;;8.40;99.90;;;;;;5113507;28;20316;-81
2022/12/27 08:11:45;;;;;;;;;;;8.40;99.90;;;;;;5113051;28;20321;-80
2022/12/27 08:14:10;;;;;;;;;;;8.50;99.90;;;;;;5113029;28;19934;-80
2022/12/27 08:16:36;;;;;;;;;;;8.50;99.90;;;;;;5113741;28;20333;-80
2022/12/27 08:19:01;;;;;;;;;;;8.50;99.90;;;;;;5113110;28;19907;-78
2022/12/27 08:21:27;;;;;;;;;;;8.50;99.90;;;;;;5113512;28;19908;-78
2022/12/27 08:23:52;;;;;;;;;;;8.50;99.90;;;;;;5113029;28;19953;-80
2022/12/27 08:26:18;;;;;;;;;;;8.50;99.90;;;;;;5113553;28;20383;-79
2022/12/27 08:28:43;;;;;;;;;;;8.50;99.90;;;;;;5113455;28;20248;-79
2022/12/27 08:31:10;;;;;;;;;;;8.60;99.90;;;;;;5112638;28;20490;-81
2022/12/27 08:33:36;;;;;;;;;;;8.60;99.90;;;;;;5094011;28;19911;-80
2022/12/27 08:36:05;;;;;;;;;;;8.70;99.90;;;;;;5111901;28;19915;-80
2022/12/27 08:38:30;;;;;;;;;;;8.70;99.90;;;;;;5126045;28;19900;-80
2022/12/27 08:40:56;;;;;;;;;;;8.70;99.90;;;;;;5131950;28;20022;-79
2022/12/27 08:43:21;;;;;;;;;;;8.80;99.90;;;;;;5114808;28;19900;-79
2022/12/27 08:45:48;;;;;;;;;;;8.80;99.90;;;;;;5136079;28;19907;-80
2022/12/27 08:48:14;;;;;;;;;;;8.80;99.90;;;;;;5135369;27;19930;-78
2022/12/27 08:50:40;;;;;;;;;;;8.70;99.90;;;;;;5135865;27;19900;-79
2022/12/27 08:53:05;;;;;;;;;;;8.70;99.90;;;;;;5117824;28;20356;-80
2022/12/27 08:55:31;;;;;;;;;;;8.70;99.90;;;;;;5112310;28;20006;-80
2022/12/27 08:57:57;;;;;;;;;;;8.70;99.90;;;;;;5106216;28;20357;-81
2022/12/27 09:00:23;;;;;;;;;;;8.90;99.90;;;;;;5102748;28;19922;-80
2022/12/27 09:02:49;;;;;;;;;;;8.80;99.90;;;;;;5103432;28;19907;-81
2022/12/27 09:05:15;;;;;;;;;;;8.80;99.90;;;;;;5111532;28;19934;-81
2022/12/27 09:07:40;;;;;;;;;;;8.80;99.90;;;;;;5111699;28;19927;-80
2022/12/27 09:10:06;;;;;;;;;;;8.80;99.90;;;;;;5111587;28;20347;-80
2022/12/27 09:12:32;;;;;;;;;;;8.80;99.90;;;;;;5093766;28;20024;-81
2022/12/27 09:14:58;;;;;;;;;;;8.90;99.90;;;;;;5110372;28;19912;-81
2022/12/27 09:17:24;;;;;;;;;;;9.00;99.90;;;;;;5111684;28;19919;-80
2022/12/27 09:19:50;;;;;;;;;;;8.90;99.90;;;;;;5111830;28;19908;-81
2022/12/27 09:22:15;;;;;;;;;;;8.90;99.90;;;;;;5092749;28;19912;-80
2022/12/27 09:24:41;;;;;;;;;;;8.90;99.90;;;;;;5111484;28;19908;-80
2022/12/27 09:27:07;;;;;;;;;;;8.90;99.90;;;;;;5092627;28;20290;-81
2022/12/27 09:29:32;;;;;;;;;;;8.90;99.90;;;;;;5093922;28;20014;-82
2022/12/27 09:31:58;;;;;;;;;;;9.00;99.90;;;;;;5111798;28;20233;-82
2022/12/27 09:34:23;;;;;;;;;;;9.00;99.90;;;;;;5106694;28;19912;-82
2022/12/27 09:36:49;;;;;;;;;;;9.00;99.90;;;;;;5101932;28;20288;-82
2022/12/27 09:39:16;;;;;;;;;;;9.00;99.90;;;;;;5099080;28;19969;-83
2022/12/27 09:41:47;;;;;;;;;;;9.10;99.90;;;;;;5091396;28;19912;-82
2022/12/27 09:44:19;;;;;;;;;;;9.10;99.90;;;;;;5090900;28;19908;-82
2022/12/27 09:46:48;;;;;;;;;;;9.00;99.90;;;;;;5091319;28;20277;-80
2022/12/27 09:49:17;;;;;;;;;;;9.00;99.90;;;;;;5091030;28;19915;-82
2022/12/27 09:51:47;;;;;;;;;;;9.00;99.90;;;;;;5091071;28;19908;-81
2022/12/27 09:54:14;;;;;;;;;;;9.00;99.90;;;;;;5091367;28;19908;-82
2022/12/27 09:56:40;;;;;;;;;;;9.10;99.90;;;;;;5091781;28;19914;-83
2022/12/27 09:59:20;;;;;;;;;;;9.10;99.90;;;;;;5099787;28;19999;-83
2022/12/27 10:01:47;;;;;;;;;;;9.20;99.90;;;;;;5081982;28;19908;-82
2022/12/27 10:04:16;;;;;;;;;;;9.20;99.90;;;;;;5108463;28;19968;-82
2022/12/27 10:06:47;;;;;;;;;;;9.30;99.90;;;;;;5111359;28;20296;-83
2022/12/27 10:09:31;;;;;;;;;;;9.30;99.90;;;;;;5111302;28;19946;-82
2022/12/27 10:12:15;;;;;;;;;;;9.30;99.90;;;;;;5110718;28;20372;-83
2022/12/27 10:14:47;;;;;;;;;;;9.40;99.90;;;;;;5111365;28;19940;-82
2022/12/27 10:17:31;;;;;;;;;;;9.40;99.90;;;;;;5110644;28;19930;-82
2022/12/27 10:20:07;;;;;;;;;;;9.40;99.90;;;;;;5111000;28;20410;-83
2022/12/27 10:22:34;;;;;;;;;;;9.50;99.90;;;;;;5111563;28;19985;-82
2022/12/27 10:25:01;;;;;;;;;;;9.50;99.90;;;;;;5110611;28;20349;-83
2022/12/27 10:27:27;;;;;;;;;;;9.60;99.90;;;;;;5112979;28;20066;-82
2022/12/27 10:29:54;;;;;;;;;;;9.60;99.90;;;;;;5114847;28;19919;-82
2022/12/27 10:32:20;;;;;;;;;;;9.60;99.90;;;;;;5114447;28;20051;-82
2022/12/27 10:34:49;;;;;;;;;;;9.70;99.90;;;;;;5114596;28;20079;-80
2022/12/27 10:37:15;;;;;;;;;;;9.80;99.90;;;;;;5114551;28;19984;-81
2022/12/27 10:39:41;;;;;;;;;;;9.80;99.90;;;;;;5110397;28;20003;-82
2022/12/27 10:42:15;;;;;;;;;;;9.90;99.90;;;;;;5084196;28;20004;-81
2022/12/27 10:44:41;;;;;;;;;;;10.00;99.90;;;;;;5103574;28;19908;-81
2022/12/27 10:47:07;;;;;;;;;;;10.00;99.90;;;;;;5113722;28;19912;-82
2022/12/27 10:49:33;;;;;;;;;;;10.10;99.90;;;;;;5096802;28;20288;-79
2022/12/27 10:52:05;;;;;;;;;;;10.10;99.90;;;;;;5102609;28;20246;-85
2022/12/27 10:54:30;;;;;;;;;;;10.20;99.90;;;;;;5101035;28;19914;-81
2022/12/27 10:57:14;;;;;;;;;;;10.30;99.90;;;;;;5094237;28;19998;-80
2022/12/27 10:59:39;;;;;;;;;;;10.40;99.90;;;;;;5094697;28;19936;-81
2022/12/27 11:02:05;;;;;;;;;;;10.40;99.90;;;;;;5093328;28;19911;-82
2022/12/27 11:04:31;;;;;;;;;;;10.50;99.90;;;;;;5093729;28;19931;-80
2022/12/27 11:07:03;;;;;;;;;;;10.50;99.90;;;;;;5093272;28;19920;-80
2022/12/27 11:09:30;;;;;;;;;;;10.60;99.90;;;;;;5093808;28;20290;-80
2022/12/27 11:12:14;;;;;;;;;;;10.60;99.90;;;;;;5075171;28;19912;-81
2022/12/27 11:15:00;;;;;;;;;;;10.60;99.90;;;;;;5075170;28;20424;-81
2022/12/27 11:17:34;;;;;;;;;;;10.60;99.90;;;;;;5092801;28;20361;-81
2022/12/27 11:20:01;;;;;;;;;;;10.60;99.90;;;;;;5093606;28;19977;-81
2022/12/27 11:22:27;;;;;;;;;;;10.60;99.90;;;;;;5092910;28;20353;-80
2022/12/27 11:24:54;;;;;;;;;;;10.60;99.90;;;;;;5093308;28;19918;-81
2022/12/27 11:27:22;;;;;;;;;;;10.60;99.90;;;;;;5113091;28;19986;-81
2022/12/27 11:29:48;;;;;;;;;;;10.60;99.90;;;;;;5113748;28;19922;-80
2022/12/27 11:32:13;;;;;;;;;;;10.70;99.90;;;;;;5113412;28;19990;-83
2022/12/27 11:34:42;;;;;;;;;;;10.70;99.90;;;;;;5113855;28;19908;-82
2022/12/27 11:37:15;;;;;;;;;;;10.80;99.90;;;;;;5094228;28;19919;-83
2022/12/27 11:39:42;;;;;;;;;;;10.70;99.90;;;;;;5113555;28;19915;-82
2022/12/27 11:42:40;;;;;;;;;;;10.70;99.90;;;;;;5112993;28;19908;-83
2022/12/27 11:45:11;;;;;;;;;;;10.70;99.90;;;;;;5056644;28;19938;-83
2022/12/27 11:47:40;;;;;;;;;;;10.70;99.90;;;;;;5113546;28;19955;-82
2022/12/27 11:50:05;;;;;;;;;;;10.70;99.90;;;;;;5113206;28;19972;-84
2022/12/27 11:52:37;;;;;;;;;;;10.70;99.90;;;;;;5113713;28;19908;-81
2022/12/27 11:55:22;;;;;;;;;;;10.70;99.90;;;;;;5112931;28;20273;-80
2022/12/27 11:58:23;;;;;;;;;;;10.70;99.90;;;;;;5095204;28;19908;-81
2022/12/27 12:01:07;;;;;;;;;;;10.70;99.90;;;;;;4998765;28;20283;-80
2022/12/27 12:03:55;;;;;;;;;;;10.80;99.90;;;;;;5083605;28;19912;-82
2022/12/27 12:06:36;;;;;;;;;;;10.80;99.90;;;;;;5093152;28;19908;-82
2022/12/27 12:09:11;;;;;;;;;;;10.80;99.90;;;;;;5091761;28;20380;-82
2022/12/27 12:11:55;;;;;;;;;;;10.80;99.90;;;;;;5091861;28;19919;-81
2022/12/27 12:14:24;;;;;;;;;;;10.80;99.90;;;;;;5092047;28;19931;-81
2022/12/27 12:16:55;;;;;;;;;;;10.80;99.90;;;;;;5092517;28;19912;-81
2022/12/27 12:19:34;;;;;;;;;;;10.70;99.90;;;;;;5091981;28;19908;-81
2022/12/27 12:22:06;;;;;;;;;;;10.70;99.90;;;;;;5092744;28;19973;-80
2022/12/27 12:24:41;;;;;;;;;;;10.80;99.90;;;;;;5092691;28;19985;-81
2022/12/27 12:27:09;;;;;;;;;;;10.80;99.90;;;;;;5092244;28;19992;-84
2022/12/27 12:29:53;;;;;;;;;;;10.90;99.90;;;;;;5092535;28;20233;-80
2022/12/27 12:32:31;;;;;;;;;;;11.00;99.90;;;;;;5091996;28;19908;-81
2022/12/27 12:34:56;;;;;;;;;;;11.00;99.90;;;;;;5077203;28;19927;-81
2022/12/27 12:37:25;;;;;;;;;;;11.20;99.90;;;;;;5102776;28;19931;-81
2022/12/27 12:39:53;;;;;;;;;;;11.30;99.90;;;;;;5103315;28;20000;-81
2022/12/27 12:42:19;;;;;;;;;;;11.30;99.90;;;;;;5100738;28;20154;-79
2022/12/27 12:44:50;;;;;;;;;;;11.30;99.90;;;;;;5104679;28;20372;-79
2022/12/27 12:47:24;;;;;;;;;;;11.30;99.90;;;;;;5110284;28;19911;-80
2022/12/27 12:49:59;;;;;;;;;;;11.30;99.90;;;;;;5073970;28;19962;-80
2022/12/27 12:52:43;;;;;;;;;;;11.30;99.90;;;;;;5072868;28;20335;-80
2022/12/27 12:55:17;;;;;;;;;;;11.20;99.90;;;;;;5091332;28;19919;-85
2022/12/27 12:57:58;;;;;;;;;;;11.20;99.90;;;;;;5092164;28;20384;-79
2022/12/27 13:00:27;;;;;;;;;;;11.30;99.90;;;;;;5091953;28;19908;-79
2022/12/27 13:02:56;;;;;;;;;;;11.30;99.90;;;;;;5092844;28;20307;-80
2022/12/27 13:05:22;;;;;;;;;;;11.30;99.90;;;;;;5092029;28;19916;-78
2022/12/27 13:08:04;;;;;;;;;;;11.40;99.90;;;;;;5092139;28;19926;-78
2022/12/27 13:10:47;;;;;;;;;;;11.40;99.90;;;;;;5091555;28;20478;-78
2022/12/27 13:13:13;;;;;;;;;;;11.40;99.90;;;;;;5106831;28;19912;-77
2022/12/27 13:15:57;;;;;;;;;;;11.40;99.90;;;;;;5110787;28;19957;-79
2022/12/27 13:18:26;;;;;;;;;;;11.40;99.90;;;;;;5100363;28;19968;-79
2022/12/27 13:20:52;;;;;;;;;;;11.30;99.90;;;;;;5106262;28;19914;-80
2022/12/27 13:23:39;;;;;;;;;;;11.30;99.90;;;;;;5112664;28;20006;-80
2022/12/27 13:26:11;;;;;;;;;;;11.30;99.90;;;;;;5112895;28;19925;-79
2022/12/27 13:28:45;;;;;;;;;;;11.20;99.90;;;;;;5112671;28;19912;-79
2022/12/27 13:31:13;;;;;;;;;;;11.20;99.90;;;;;;5113171;28;19912;-82
2022/12/27 13:33:50;;;;;;;;;;;11.20;99.90;;;;;;5117576;28;19954;-79
2022/12/27 13:36:45;;;;;;;;;;;11.20;99.90;;;;;;5116156;28;19912;-79
2022/12/27 13:39:29;;;;;;;;;;;11.20;99.90;;;;;;5078222;28;19908;-82
2022/12/27 13:42:01;;;;;;;;;;;11.20;99.90;;;;;;5117732;28;20032;-79
2022/12/27 13:44:32;;;;;;;;;;;11.30;99.90;;;;;;5120576;28;19993;-81
2022/12/27 13:47:21;;;;;;;;;;;11.30;99.90;;;;;;5133961;27;19916;-79
2022/12/27 13:50:02;;;;;;;;;;;11.30;99.90;;;;;;5106711;27;20003;-81
2022/12/27 13:52:27;;;;;;;;;;;11.30;99.90;;;;;;5121165;28;19900;-80
2022/12/27 13:55:04;;;;;;;;;;;11.40;99.90;;;;;;5126591;28;19900;-82
2022/12/27 13:57:37;;;;;;;;;;;11.40;99.90;;;;;;5125823;28;20001;-80
2022/12/27 14:00:16;;;;;;;;;;;11.40;99.90;;;;;;5119881;28;19915;-79
2022/12/27 14:02:56;;;;;;;;;;;11.50;99.90;;;;;;5121115;28;19907;-80
2022/12/27 14:05:25;;;;;;;;;;;11.40;99.90;;;;;;5119142;28;20265;-80
2022/12/27 14:07:50;;;;;;;;;;;11.40;99.90;;;;;;5105760;28;20384;-80
2022/12/27 14:10:22;;;;;;;;;;;11.40;99.90;;;;;;5097972;28;19977;-80
2022/12/27 14:12:55;;;;;;;;;;;11.40;99.90;;;;;;5097331;28;20274;-80
2022/12/27 14:15:22;;;;;;;;;;;11.40;99.90;;;;;;5116861;28;19912;-82
2022/12/27 14:17:58;;;;;;;;;;;11.40;99.90;;;;;;5118230;28;19907;-80
2022/12/27 14:20:42;;;;;;;;;;;11.30;99.90;;;;;;5117574;28;20015;-82
2022/12/27 14:23:14;;;;;;;;;;;11.30;99.90;;;;;;5117915;28;19912;-82
2022/12/27 14:25:50;;;;;;;;;;;11.20;99.90;;;;;;5105931;28;19912;-83
2022/12/27 14:28:34;;;;;;;;;;;11.00;99.90;;;;;;5106204;28;19924;-86
2022/12/27 14:31:15;;;;;;;;;;;10.70;99.90;;;;;;5103593;28;19977;-81
2022/12/27 14:33:52;;;;;;;;;;;10.50;99.90;;;;;;5104767;28;19912;-84
2022/12/27 14:36:34;;;;;;;;;;;10.40;99.90;;;;;;5114072;28;19914;-86
2022/12/27 14:39:02;;;;;;;;;;;10.20;99.90;;;;;;5116147;28;19908;-85
2022/12/27 14:41:28;;;;;;;;;;;10.10;99.90;;;;;;5115738;28;19907;-84
2022/12/27 14:43:53;;;;;;;;;;;10.00;99.90;;;;;;5111300;28;19998;-84
2022/12/27 14:46:31;;;;;;;;;;;9.90;99.90;;;;;;5093263;28;19961;-83
2022/12/27 14:49:12;;;;;;;;;;;9.80;99.90;;;;;;5094072;28;19984;-84
2022/12/27 14:51:57;;;;;;;;;;;9.70;99.90;;;;;;5075074;28;19908;-84
2022/12/27 14:54:35;;;;;;;;;;;9.70;99.90;;;;;;5093383;28;19916;-84
2022/12/27 14:57:16;;;;;;;;;;;9.60;99.90;;;;;;5094199;28;20336;-84
2022/12/27 15:00:00;;;;;;;;;;;9.60;99.90;;;;;;5093829;28;19912;-84
2022/12/27 15:02:41;;;;;;;;;;;9.50;99.90;;;;;;5093105;28;19935;-84
2022/12/27 15:05:33;;;;;;;;;;;9.50;99.90;;;;;;5093562;28;19977;-83
2022/12/27 15:08:17;;;;;;;;;;;9.50;99.90;;;;;;5058063;28;20318;-83
2022/12/27 15:10:45;;;;;;;;;;;9.40;99.90;;;;;;5093243;28;19984;-83
2022/12/27 15:13:17;;;;;;;;;;;9.40;99.90;;;;;;5092011;28;20429;-84
2022/12/27 15:16:01;;;;;;;;;;;9.40;99.90;;;;;;5092924;28;20090;-84
2022/12/27 15:18:47;;;;;;;;;;;9.40;99.90;;;;;;5092562;28;19985;-84
2022/12/27 15:21:36;;;;;;;;;;;9.40;99.90;;;;;;5092565;28;19995;-84
2022/12/27 15:24:04;;;;;;;;;;;9.40;99.90;;;;;;5084279;28;19912;-84
2022/12/27 15:26:30;;;;;;;;;;;9.40;99.90;;;;;;5092653;28;19908;-85
2022/12/27 15:29:08;;;;;;;;;;;9.40;99.90;;;;;;5097781;28;19920;-84
2022/12/27 15:31:33;;;;;;;;;;;9.30;99.90;;;;;;5100455;28;20569;-83
2022/12/27 15:34:08;;;;;;;;;;;9.30;99.90;;;;;;5103576;28;19907;-83
2022/12/27 15:36:41;;;;;;;;;;;9.20;99.90;;;;;;5102117;28;19911;-84
2022/12/27 15:39:25;;;;;;;;;;;9.20;99.90;;;;;;5102476;28;19950;-83
2022/12/27 15:41:59;;;;;;;;;;;9.20;99.90;;;;;;5102550;28;20006;-84
2022/12/27 15:44:33;;;;;;;;;;;9.20;99.90;;;;;;5101252;28;20341;-83
2022/12/27 15:47:14;;;;;;;;;;;9.20;99.90;;;;;;5101460;28;19908;-83
2022/12/27 15:49:58;;;;;;;;;;;9.10;99.90;;;;;;5077225;28;19922;-83
2022/12/27 15:52:44;;;;;;;;;;;9.10;99.90;;;;;;5100179;28;19907;-84
2022/12/27 15:55:17;;;;;;;;;;;9.10;99.90;;;;;;5086871;28;20339;-82
2022/12/27 15:57:45;;;;;;;;;;;9.10;99.90;;;;;;5109400;28;20023;-82
2022/12/27 16:00:22;;;;;;;;;;;9.10;99.90;;;;;;5102371;28;19912;-82
2022/12/27 16:02:50;;;;;;;;;;;9.10;99.90;;;;;;5100453;28;19914;-83
2022/12/27 16:05:21;;;;;;;;;;;9.10;99.90;;;;;;5102627;28;19934;-84
2022/12/27 16:08:02;;;;;;;;;;;9.10;99.90;;;;;;5100407;28;20364;-81
2022/12/27 16:10:28;;;;;;;;;;;9.10;99.90;;;;;;5084913;28;20385;-82
2022/12/27 16:12:54;;;;;;;;;;;9.10;99.90;;;;;;5105385;28;20021;-81
2022/12/27 16:15:39;;;;;;;;;;;9.10;99.90;;;;;;5112615;28;20127;-81
2022/12/27 16:18:25;;;;;;;;;;;9.10;99.90;;;;;;5091522;28;19923;-81
2022/12/27 16:21:09;;;;;;;;;;;9.10;99.90;;;;;;5103617;28;19938;-81
2022/12/27 16:23:55;;;;;;;;;;;9.00;99.90;;;;;;5106614;28;20004;-81